Terminal Aerodrome Forecast
Issued by NWS North Platte, NE

Home | Current Version | Previous Version | Text Only | Print | Product List | Glossary Off
Versions: 1 2 3 4 5 6 7 8 9 10 11 12 13 14 15 16 17

000
FTUS43 KLBF 231700 RRA
TAFVTN
TAF
KVTN 231742Z 2318/2418 32023G32KT P6SM SKC
     FM240000 32015G25KT P6SM BKN050
     FM240300 32015G25KT 5SM -SN OVC025
     FM240600 32015G25KT P6SM OVC020
     FM241600 32020G28KT P6SM SCT020=

USA.gov is the U.S. government's official web portal to all federal, state and local government web resources and services.